createdAt,value
2019-03-13T00:00:41.978Z,60.40
2019-03-13T00:03:11.118Z,59.60
2019-03-13T00:05:40.080Z,59.60
2019-03-13T00:08:09.295Z,58.60
2019-03-13T00:10:38.526Z,59.80
2019-03-13T00:13:08.148Z,59.20
2019-03-13T00:15:37.684Z,59.70
2019-03-13T00:18:06.915Z,63.40
2019-03-13T00:20:36.425Z,67.30
2019-03-13T00:23:05.508Z,70.30
2019-03-13T00:25:35.036Z,69.00
2019-03-13T00:28:04.074Z,77.10
2019-03-13T00:30:33.330Z,77.50
2019-03-13T00:33:02.431Z,77.60
2019-03-13T00:35:31.683Z,77.10
2019-03-13T00:38:01.462Z,73.20
2019-03-13T00:40:30.590Z,77.90
2019-03-13T00:42:59.666Z,79.10
2019-03-13T00:45:29.022Z,79.60
2019-03-13T00:47:58.674Z,82.50
2019-03-13T00:50:29.827Z,81.70
2019-03-13T00:52:59.350Z,84.70
2019-03-13T00:55:28.847Z,90.10
2019-03-13T00:57:58.273Z,92.80
2019-03-13T01:00:45.551Z,94.70
2019-03-13T01:03:36.434Z,96.90
2019-03-13T01:06:08.139Z,96.90
2019-03-13T01:08:37.341Z,96.80
2019-03-13T01:11:06.335Z,97.80
2019-03-13T01:13:35.116Z,99.00
2019-03-13T01:16:04.347Z,99.60
2019-03-13T01:18:34.029Z,98.10
2019-03-13T01:21:03.185Z,98.50
2019-03-13T01:23:32.060Z,98.40
2019-03-13T01:26:01.006Z,98.90
2019-03-13T01:28:30.089Z,98.20
2019-03-13T01:31:10.230Z,98.10
2019-03-13T01:33:39.573Z,96.50
2019-03-13T01:36:09.072Z,98.20
2019-03-13T01:38:38.151Z,96.10
2019-03-13T01:41:07.366Z,96.40
2019-03-13T01:43:37.030Z,96.30
2019-03-13T01:46:06.258Z,96.70
2019-03-13T01:48:35.590Z,96.60
2019-03-13T01:51:04.566Z,97.20
2019-03-13T01:53:33.726Z,96.50
2019-03-13T01:56:02.886Z,96.30
2019-03-13T01:58:32.377Z,96.70
2019-03-13T02:01:01.575Z,97.60
2019-03-13T02:03:31.116Z,98.00
2019-03-13T02:06:00.283Z,98.20
2019-03-13T02:08:29.715Z,98.90
2019-03-13T02:10:59.207Z,99.90
2019-03-13T02:13:28.655Z,99.90
2019-03-13T02:15:58.082Z,99.90
2019-03-13T02:18:27.830Z,99.90
2019-03-13T02:20:56.772Z,99.90
2019-03-13T02:23:26.218Z,99.90
2019-03-13T02:25:55.470Z,99.90
2019-03-13T02:28:24.798Z,99.90
2019-03-13T02:30:54.361Z,99.90
2019-03-13T02:33:23.980Z,99.90
2019-03-13T02:35:53.528Z,99.90
2019-03-13T02:38:22.442Z,99.90
2019-03-13T02:40:51.885Z,99.90
2019-03-13T02:43:21.370Z,99.90
2019-03-13T02:45:50.476Z,99.90
2019-03-13T02:48:19.861Z,99.90
2019-03-13T02:50:49.065Z,99.90
2019-03-13T02:53:18.565Z,99.90
2019-03-13T02:55:47.746Z,99.90
2019-03-13T02:58:16.651Z,99.90
2019-03-13T03:01:11.221Z,99.90
2019-03-13T03:03:44.391Z,99.90
2019-03-13T03:06:13.467Z,99.90
2019-03-13T03:08:42.887Z,99.90
2019-03-13T03:11:12.035Z,99.90
2019-03-13T03:13:41.433Z,99.90
2019-03-13T03:16:10.739Z,99.90
2019-03-13T03:18:39.911Z,99.90
2019-03-13T03:21:09.609Z,99.90
2019-03-13T03:23:39.297Z,99.90
2019-03-13T03:26:08.166Z,99.90
2019-03-13T03:28:38.089Z,99.90
2019-03-13T03:31:06.912Z,99.90
2019-03-13T03:33:36.347Z,99.90
2019-03-13T03:36:05.832Z,99.90
2019-03-13T03:38:35.109Z,99.90
2019-03-13T03:41:04.339Z,99.90
2019-03-13T03:43:40.399Z,99.90
2019-03-13T03:46:04.572Z,99.90
2019-03-13T03:48:33.425Z,99.90
2019-03-13T03:51:02.864Z,99.90
2019-03-13T03:53:32.038Z,99.90
2019-03-13T03:56:01.352Z,99.90
2019-03-13T03:58:30.802Z,99.90
2019-03-13T04:01:00.827Z,99.90
2019-03-13T04:03:30.075Z,99.90
2019-03-13T04:05:59.649Z,99.90
2019-03-13T04:08:29.408Z,99.90
2019-03-13T04:10:59.328Z,99.90
2019-03-13T04:13:28.939Z,99.90
2019-03-13T04:15:58.594Z,99.90
2019-03-13T04:18:28.060Z,99.90
2019-03-13T04:20:57.691Z,99.90
2019-03-13T04:23:26.624Z,99.90
2019-03-13T04:25:55.983Z,99.90
2019-03-13T04:28:24.986Z,99.90
2019-03-13T04:30:54.470Z,99.90
2019-03-13T04:33:28.095Z,99.90
2019-03-13T04:35:55.735Z,99.90
2019-03-13T04:38:24.849Z,99.90
2019-03-13T04:40:54.581Z,99.90
2019-03-13T04:43:24.075Z,99.90
2019-03-13T04:45:53.575Z,99.90
2019-03-13T04:48:22.723Z,99.90
2019-03-13T04:50:51.810Z,99.90
2019-03-13T04:53:20.876Z,99.90
2019-03-13T04:55:52.374Z,99.90
2019-03-13T04:58:20.956Z,99.90
2019-03-13T05:00:50.308Z,99.90
2019-03-13T05:03:19.385Z,99.90
2019-03-13T05:05:50.696Z,99.90
2019-03-13T05:08:45.451Z,99.90
2019-03-13T05:11:14.166Z,99.90
2019-03-13T05:13:43.810Z,99.90
2019-03-13T05:16:13.756Z,99.90
2019-03-13T05:18:42.978Z,99.90
2019-03-13T05:21:12.167Z,99.90
2019-03-13T05:23:41.771Z,99.90
2019-03-13T05:26:10.552Z,99.90
2019-03-13T05:28:39.498Z,99.90
2019-03-13T05:31:09.010Z,99.90
2019-03-13T05:33:38.602Z,99.90
2019-03-13T05:36:08.015Z,99.90
2019-03-13T05:38:37.384Z,99.90
2019-03-13T05:41:06.271Z,99.90
2019-03-13T05:43:36.080Z,99.90
2019-03-13T05:46:06.162Z,99.90
2019-03-13T05:48:35.316Z,99.90
2019-03-13T05:51:04.596Z,99.90
2019-03-13T05:53:33.726Z,99.90
2019-03-13T05:56:03.084Z,99.90
2019-03-13T05:58:32.427Z,99.90
2019-03-13T06:01:01.245Z,99.90
2019-03-13T06:03:30.370Z,99.90
2019-03-13T06:05:59.533Z,99.90
2019-03-13T06:08:28.503Z,99.90
2019-03-13T06:10:57.827Z,99.90
2019-03-13T06:13:27.472Z,99.90
2019-03-13T06:15:56.753Z,99.90
2019-03-13T06:18:26.468Z,99.90
2019-03-13T06:20:55.926Z,99.90
2019-03-13T06:23:25.079Z,99.90
2019-03-13T06:25:54.547Z,99.90
2019-03-13T06:28:23.983Z,99.90
2019-03-13T06:30:53.162Z,99.90
2019-03-13T06:33:22.770Z,99.90
2019-03-13T06:35:51.891Z,99.90
2019-03-13T06:38:21.326Z,99.90
2019-03-13T06:40:50.679Z,99.90
2019-03-13T06:43:20.282Z,99.90
2019-03-13T06:45:49.108Z,99.90
2019-03-13T06:48:18.602Z,99.90
2019-03-13T06:50:48.063Z,99.90
2019-03-13T06:53:17.873Z,99.90
2019-03-13T06:55:47.305Z,99.90
2019-03-13T06:58:18.076Z,99.90
2019-03-13T07:00:54.674Z,99.90
2019-03-13T07:03:38.910Z,99.90
2019-03-13T07:06:45.355Z,99.90
2019-03-13T07:09:41.503Z,99.90
2019-03-13T07:12:21.115Z,99.90
2019-03-13T07:14:57.534Z,99.90
2019-03-13T07:17:44.142Z,99.90
2019-03-13T07:20:22.551Z,99.90
2019-03-13T07:23:04.042Z,99.90
2019-03-13T07:26:07.869Z,99.90
2019-03-13T07:28:44.372Z,99.90
2019-03-13T07:31:31.175Z,99.90
2019-03-13T07:34:18.629Z,99.90
2019-03-13T07:37:09.903Z,99.90
2019-03-13T07:39:49.504Z,99.90
2019-03-13T07:42:53.472Z,99.90
2019-03-13T07:45:31.342Z,99.90
2019-03-13T07:48:08.510Z,99.90
2019-03-13T07:50:53.284Z,99.90
2019-03-13T07:53:40.448Z,99.90
2019-03-13T07:56:27.942Z,99.90
2019-03-13T07:59:07.231Z,99.90
2019-03-13T08:02:13.536Z,99.90
2019-03-13T08:04:52.790Z,99.90
2019-03-13T08:07:59.374Z,99.90
2019-03-13T08:10:49.606Z,99.90
2019-03-13T08:13:36.791Z,99.90
2019-03-13T08:16:31.410Z,99.90
2019-03-13T08:19:07.769Z,99.90
2019-03-13T08:22:11.597Z,99.90
2019-03-13T08:24:53.567Z,99.90
2019-03-13T08:27:39.639Z,99.90
2019-03-13T08:30:15.217Z,99.90
2019-03-13T08:33:02.557Z,99.90
2019-03-13T08:35:45.399Z,99.90
2019-03-13T08:38:19.518Z,99.90
2019-03-13T08:41:16.742Z,99.90
2019-03-13T08:43:57.851Z,99.90
2019-03-13T08:46:32.299Z,99.90
2019-03-13T08:49:23.881Z,99.90
2019-03-13T08:52:08.812Z,99.90
2019-03-13T08:55:08.255Z,99.90
2019-03-13T08:58:02.356Z,99.90
2019-03-13T09:00:49.066Z,98.60
2019-03-13T09:03:43.885Z,99.10
2019-03-13T09:06:41.511Z,99.70
2019-03-13T09:09:45.099Z,99.90
2019-03-13T09:12:30.496Z,99.50
2019-03-13T09:15:17.960Z,99.90
2019-03-13T09:18:05.688Z,99.70
2019-03-13T09:20:59.528Z,99.60
2019-03-13T09:23:46.383Z,98.70
2019-03-13T09:26:22.959Z,99.30
2019-03-13T09:29:02.076Z,98.80
2019-03-13T09:31:48.655Z,99.00
2019-03-13T09:34:23.192Z,99.30
2019-03-13T09:37:06.971Z,99.00
2019-03-13T09:39:45.450Z,99.30
2019-03-13T09:42:21.717Z,98.40
2019-03-13T09:45:13.297Z,99.90
2019-03-13T09:48:10.726Z,99.90
2019-03-13T09:50:59.562Z,99.20
2019-03-13T09:53:46.816Z,99.90
2019-03-13T09:56:35.292Z,99.90
2019-03-13T09:59:15.179Z,99.90
2019-03-13T10:02:03.695Z,99.90
2019-03-13T10:04:39.823Z,99.90
2019-03-13T10:07:20.138Z,99.90
2019-03-13T10:10:11.471Z,99.90
2019-03-13T10:12:46.875Z,99.90
2019-03-13T10:15:23.498Z,99.90
2019-03-13T10:18:21.478Z,99.90
2019-03-13T10:21:12.586Z,99.90
2019-03-13T10:23:47.632Z,99.90
2019-03-13T10:26:45.428Z,99.90
2019-03-13T10:29:37.935Z,98.20
2019-03-13T10:32:25.170Z,96.00
2019-03-13T10:35:00.391Z,94.40
2019-03-13T10:37:51.476Z,92.40
2019-03-13T10:40:40.069Z,94.00
2019-03-13T10:43:22.694Z,94.30
2019-03-13T10:46:13.694Z,95.80
2019-03-13T10:48:48.527Z,98.60
2019-03-13T10:51:35.600Z,99.90
2019-03-13T10:54:17.171Z,99.90
2019-03-13T10:56:59.071Z,98.20
2019-03-13T11:00:02.969Z,96.00
2019-03-13T11:02:41.343Z,93.50
2019-03-13T11:05:29.698Z,92.20
2019-03-13T11:08:30.226Z,90.90
2019-03-13T11:11:02.662Z,92.70
2019-03-13T11:13:45.794Z,89.90
2019-03-13T11:16:36.905Z,93.30
2019-03-13T11:19:14.473Z,92.80
2019-03-13T11:22:01.962Z,92.90
2019-03-13T11:24:53.318Z,94.90
2019-03-13T11:27:40.846Z,90.30
2019-03-13T11:30:28.442Z,83.80
2019-03-13T11:33:16.673Z,77.10
2019-03-13T11:36:03.331Z,69.50
2019-03-13T11:39:00.952Z,69.40
2019-03-13T11:41:41.023Z,68.70
2019-03-13T11:44:23.890Z,67.70
2019-03-13T11:47:18.510Z,64.80
2019-03-13T11:50:10.080Z,65.30
2019-03-13T11:53:02.288Z,70.10
2019-03-13T11:56:08.955Z,71.70
2019-03-13T11:58:48.090Z,72.00
2019-03-13T12:01:46.169Z,69.50
2019-03-13T12:04:33.411Z,72.60
2019-03-13T12:07:16.114Z,73.60
2019-03-13T12:09:56.255Z,73.80
2019-03-13T12:12:50.308Z,79.20
2019-03-13T12:15:47.959Z,82.80
2019-03-13T12:18:47.384Z,85.60
2019-03-13T12:21:42.236Z,86.50
2019-03-13T12:24:23.273Z,92.20
2019-03-13T12:27:12.141Z,96.60
2019-03-13T12:30:20.639Z,98.40
2019-03-13T12:32:59.677Z,99.60
2019-03-13T12:35:49.470Z,99.90
2019-03-13T12:38:40.044Z,99.20
2019-03-13T12:41:27.439Z,98.50
2019-03-13T12:44:02.372Z,96.50
2019-03-13T12:46:37.735Z,91.20
2019-03-13T12:49:25.762Z,92.20
2019-03-13T12:52:23.054Z,85.60
2019-03-13T12:55:17.503Z,88.20
2019-03-13T12:58:03.727Z,90.00
2019-03-13T13:00:59.959Z,85.90
2019-03-13T13:04:00.422Z,85.70
2019-03-13T13:06:43.706Z,78.30
2019-03-13T13:09:33.234Z,78.00
2019-03-13T13:12:33.730Z,71.90
2019-03-13T13:15:20.255Z,75.20
2019-03-13T13:17:58.051Z,74.40
2019-03-13T13:20:27.162Z,72.00
2019-03-13T13:22:56.343Z,72.10
2019-03-13T13:25:25.579Z,72.10
2019-03-13T13:27:54.738Z,70.10
2019-03-13T13:30:23.918Z,70.70
2019-03-13T13:32:53.035Z,72.10
2019-03-13T13:35:22.227Z,74.60
2019-03-13T13:37:51.529Z,75.60
2019-03-13T13:40:21.221Z,75.20
2019-03-13T13:42:50.188Z,74.10
2019-03-13T13:45:43.929Z,74.40
2019-03-13T13:48:13.364Z,72.80
2019-03-13T13:50:43.292Z,77.50
2019-03-13T13:53:12.484Z,78.80
2019-03-13T13:55:42.220Z,81.30
2019-03-13T13:58:11.926Z,83.50
2019-03-13T14:00:41.106Z,85.00
2019-03-13T14:03:12.144Z,91.20
2019-03-13T14:05:42.223Z,96.20
2019-03-13T14:08:11.966Z,98.60
2019-03-13T14:10:41.196Z,99.90
2019-03-13T14:13:10.323Z,99.90
2019-03-13T14:15:39.929Z,99.90
2019-03-13T14:18:09.551Z,98.50
2019-03-13T14:20:39.031Z,96.80
2019-03-13T14:23:08.374Z,92.70
2019-03-13T14:25:38.124Z,82.40
2019-03-13T14:28:07.634Z,80.70
2019-03-13T14:30:37.161Z,85.00
2019-03-13T14:33:06.423Z,91.40
2019-03-13T14:35:35.365Z,92.90
2019-03-13T14:38:05.647Z,95.20
2019-03-13T14:40:34.889Z,95.50
2019-03-13T14:43:04.157Z,95.40
2019-03-13T14:45:33.774Z,96.70
2019-03-13T14:48:03.075Z,96.70
2019-03-13T14:50:32.882Z,96.00
2019-03-13T14:53:02.446Z,96.20
2019-03-13T14:55:31.625Z,95.20
2019-03-13T14:58:01.600Z,93.90
2019-03-13T15:00:30.875Z,95.20
2019-03-13T15:03:00.275Z,96.30
2019-03-13T15:05:29.682Z,97.50
2019-03-13T15:07:59.002Z,97.10
2019-03-13T15:10:28.195Z,97.50
2019-03-13T15:12:57.868Z,98.50
2019-03-13T15:15:27.012Z,98.20
2019-03-13T15:17:56.678Z,98.00
2019-03-13T15:20:25.747Z,97.90
2019-03-13T15:22:55.305Z,98.50
2019-03-13T15:25:24.294Z,99.20
2019-03-13T15:27:54.274Z,99.90
2019-03-13T15:30:23.339Z,99.90
2019-03-13T15:32:52.695Z,99.90
2019-03-13T15:35:22.109Z,99.90
2019-03-13T15:37:51.603Z,99.90
2019-03-13T15:40:20.996Z,99.90
2019-03-13T15:42:50.949Z,99.90
2019-03-13T15:45:20.794Z,99.90
2019-03-13T15:47:50.202Z,99.90
2019-03-13T15:50:19.386Z,99.90
2019-03-13T15:52:48.549Z,99.90
2019-03-13T15:55:17.806Z,99.90
2019-03-13T15:57:47.401Z,99.90
2019-03-13T16:00:19.262Z,99.90
2019-03-13T16:02:48.738Z,99.90
2019-03-13T16:05:18.269Z,99.90
2019-03-13T16:07:47.465Z,99.90
2019-03-13T16:10:16.811Z,99.90
2019-03-13T16:12:46.093Z,98.60
2019-03-13T16:15:17.458Z,99.10
2019-03-13T16:17:47.088Z,99.30
2019-03-13T16:20:16.714Z,98.90
2019-03-13T16:22:49.498Z,99.30
2019-03-13T16:25:18.443Z,99.90
2019-03-13T16:27:47.882Z,99.90
2019-03-13T16:30:18.355Z,99.90
2019-03-13T16:32:47.881Z,99.90
2019-03-13T16:35:17.130Z,99.90
2019-03-13T16:37:46.120Z,99.90
2019-03-13T16:40:15.881Z,99.90
2019-03-13T16:42:45.393Z,99.90
2019-03-13T16:45:15.231Z,99.90
2019-03-13T16:47:45.322Z,99.90
2019-03-13T16:50:16.070Z,99.90
2019-03-13T16:52:45.303Z,99.90
2019-03-13T16:55:15.754Z,99.90
2019-03-13T16:57:45.198Z,99.90
2019-03-13T17:00:17.338Z,99.90
2019-03-13T17:02:46.759Z,99.90
2019-03-13T17:05:15.911Z,99.90
2019-03-13T17:07:45.394Z,99.90
2019-03-13T17:10:15.743Z,99.90
2019-03-13T17:12:45.242Z,99.90
2019-03-13T17:15:16.484Z,99.90
2019-03-13T17:17:45.891Z,99.90
2019-03-13T17:20:17.059Z,99.90
2019-03-13T17:22:46.830Z,99.90
2019-03-13T17:25:16.699Z,99.90
2019-03-13T17:27:45.978Z,99.90
2019-03-13T17:30:17.903Z,99.90
2019-03-13T17:32:47.333Z,99.90
2019-03-13T17:35:16.909Z,99.90
2019-03-13T17:37:46.427Z,99.90
2019-03-13T17:40:17.566Z,99.90
2019-03-13T17:42:46.494Z,99.90
2019-03-13T17:45:17.566Z,99.90
2019-03-13T17:47:47.438Z,99.90
2019-03-13T17:50:17.156Z,99.90
2019-03-13T17:52:46.443Z,99.90
2019-03-13T17:55:15.615Z,99.90
2019-03-13T17:57:45.193Z,99.90
2019-03-13T18:00:19.632Z,99.90
2019-03-13T18:02:48.874Z,99.90
2019-03-13T18:05:18.291Z,99.90
2019-03-13T18:07:47.400Z,99.90
2019-03-13T18:10:17.431Z,99.90
2019-03-13T18:12:46.456Z,99.90
2019-03-13T18:15:16.127Z,99.90
2019-03-13T18:17:45.966Z,99.90
2019-03-13T18:20:16.616Z,99.90
2019-03-13T18:22:45.867Z,99.90
2019-03-13T18:25:18.183Z,99.90
2019-03-13T18:27:46.899Z,99.90
2019-03-13T18:30:18.576Z,99.90
2019-03-13T18:32:48.075Z,99.90
2019-03-13T18:35:17.354Z,99.90
2019-03-13T18:37:46.931Z,99.90
2019-03-13T18:40:16.292Z,99.90
2019-03-13T18:42:45.230Z,99.90
2019-03-13T18:45:16.652Z,99.90
2019-03-13T18:47:46.047Z,99.90
2019-03-13T18:50:15.311Z,99.90
2019-03-13T18:52:44.590Z,99.90
2019-03-13T18:55:15.262Z,99.90
2019-03-13T18:57:44.904Z,99.90
2019-03-13T19:00:24.875Z,99.90
2019-03-13T19:02:54.363Z,99.90
2019-03-13T19:05:23.519Z,99.90
2019-03-13T19:07:53.006Z,99.90
2019-03-13T19:10:22.483Z,99.90
2019-03-13T19:12:53.054Z,99.90
2019-03-13T19:15:23.372Z,99.90
2019-03-13T19:17:53.347Z,99.90
2019-03-13T19:20:22.908Z,99.90
2019-03-13T19:22:52.198Z,99.90
2019-03-13T19:25:22.080Z,99.90
2019-03-13T19:27:51.555Z,99.90
2019-03-13T19:30:22.731Z,99.90
2019-03-13T19:32:52.319Z,99.90
2019-03-13T19:35:21.578Z,99.90
2019-03-13T19:37:50.657Z,99.90
2019-03-13T19:40:19.913Z,99.90
2019-03-13T19:42:49.061Z,99.90
2019-03-13T19:45:21.690Z,99.90
2019-03-13T19:47:51.026Z,99.90
2019-03-13T19:50:21.051Z,99.90
2019-03-13T19:52:50.275Z,99.90
2019-03-13T19:55:20.340Z,99.90
2019-03-13T19:57:49.423Z,99.90
2019-03-13T20:00:21.987Z,99.90
2019-03-13T20:02:59.963Z,99.90
2019-03-13T20:05:22.170Z,99.90
2019-03-13T20:07:51.533Z,99.90
2019-03-13T20:10:22.431Z,99.90
2019-03-13T20:12:51.941Z,99.90
2019-03-13T20:15:21.887Z,99.90
2019-03-13T20:17:51.551Z,99.90
2019-03-13T20:20:21.591Z,99.90
2019-03-13T20:22:52.745Z,99.90
2019-03-13T20:25:22.078Z,99.90
2019-03-13T20:27:54.371Z,99.90
2019-03-13T20:30:22.279Z,99.90
2019-03-13T20:32:52.019Z,99.90
2019-03-13T20:35:20.998Z,99.90
2019-03-13T20:37:50.519Z,99.90
2019-03-13T20:40:20.558Z,99.90
2019-03-13T20:42:50.039Z,99.90
2019-03-13T20:45:21.259Z,99.90
2019-03-13T20:47:50.253Z,99.90
2019-03-13T20:50:19.624Z,99.90
2019-03-13T20:52:48.978Z,99.90
2019-03-13T20:55:18.473Z,99.90
2019-03-13T20:57:47.526Z,99.90
2019-03-13T21:00:20.074Z,99.90
2019-03-13T21:02:49.430Z,99.90
2019-03-13T21:05:18.583Z,99.90
2019-03-13T21:07:48.706Z,99.90
2019-03-13T21:10:17.952Z,99.90
2019-03-13T21:12:47.471Z,99.90
2019-03-13T21:15:16.957Z,99.90
2019-03-13T21:17:46.206Z,99.90
2019-03-13T21:20:16.041Z,99.90
2019-03-13T21:22:45.341Z,99.90
2019-03-13T21:25:14.715Z,99.90
2019-03-13T21:27:47.409Z,99.90
2019-03-13T21:30:18.641Z,99.90
2019-03-13T21:32:48.447Z,99.90
2019-03-13T21:35:17.371Z,99.90
2019-03-13T21:37:47.090Z,99.90
2019-03-13T21:40:16.335Z,99.90
2019-03-13T21:42:45.954Z,99.90
2019-03-13T21:45:22.555Z,99.90
2019-03-13T21:47:47.074Z,99.90
2019-03-13T21:50:16.999Z,99.90
2019-03-13T21:52:46.048Z,99.90
2019-03-13T21:55:15.001Z,99.90
2019-03-13T21:57:44.709Z,99.90
2019-03-13T22:00:17.474Z,99.90
2019-03-13T22:02:46.874Z,99.90
2019-03-13T22:05:25.775Z,99.90
2019-03-13T22:07:47.466Z,99.90
2019-03-13T22:10:17.581Z,99.90
2019-03-13T22:12:47.066Z,99.90
2019-03-13T22:15:16.155Z,99.90
2019-03-13T22:17:45.414Z,99.90
2019-03-13T22:20:14.690Z,99.90
2019-03-13T22:22:44.097Z,99.90
2019-03-13T22:25:13.823Z,99.90
2019-03-13T22:27:42.753Z,99.90
2019-03-13T22:30:20.481Z,99.90
2019-03-13T22:32:50.009Z,99.90
2019-03-13T22:35:19.531Z,99.90
2019-03-13T22:37:49.458Z,99.90
2019-03-13T22:40:19.063Z,99.90
2019-03-13T22:42:48.378Z,99.90
2019-03-13T22:45:17.595Z,99.90
2019-03-13T22:47:46.860Z,99.90
2019-03-13T22:50:17.241Z,99.90
2019-03-13T22:52:46.667Z,99.90
2019-03-13T22:55:16.413Z,99.90
2019-03-13T22:57:45.404Z,99.90
2019-03-13T23:00:27.890Z,99.90
2019-03-13T23:02:57.159Z,99.90
2019-03-13T23:05:26.643Z,99.90
2019-03-13T23:07:55.831Z,99.90
2019-03-13T23:10:32.064Z,99.90
2019-03-13T23:13:01.735Z,99.90
2019-03-13T23:15:31.247Z,99.90
2019-03-13T23:18:00.747Z,99.90
2019-03-13T23:20:30.160Z,99.90
2019-03-13T23:22:59.347Z,99.90
2019-03-13T23:25:29.154Z,99.90
2019-03-13T23:27:58.470Z,99.90
2019-03-13T23:30:27.746Z,99.90
2019-03-13T23:32:57.614Z,99.90
2019-03-13T23:35:26.523Z,99.90
2019-03-13T23:37:55.970Z,99.90
2019-03-13T23:40:25.745Z,99.90
2019-03-13T23:42:55.501Z,99.90
2019-03-13T23:45:25.007Z,99.90
2019-03-13T23:47:54.210Z,99.90
2019-03-13T23:50:23.590Z,99.90
2019-03-13T23:52:53.214Z,99.90
2019-03-13T23:55:22.185Z,99.90
2019-03-13T23:57:51.169Z,99.90
